sensor_id;sensor_type;location;lat;lon;timestamp;temperature;humidity
9919;DHT22;4998;51.024;13.828;2024-03-22T00:00:45;13.20;69.60
9919;DHT22;4998;51.024;13.828;2024-03-22T00:03:11;13.20;69.50
9919;DHT22;4998;51.024;13.828;2024-03-22T00:05:38;13.20;69.50
9919;DHT22;4998;51.024;13.828;2024-03-22T00:08:04;13.20;69.50
9919;DHT22;4998;51.024;13.828;2024-03-22T00:10:31;13.20;69.60
9919;DHT22;4998;51.024;13.828;2024-03-22T00:12:58;13.20;69.70
9919;DHT22;4998;51.024;13.828;2024-03-22T00:15:25;13.20;69.80
9919;DHT22;4998;51.024;13.828;2024-03-22T00:17:52;13.20;69.80
9919;DHT22;4998;51.024;13.828;2024-03-22T00:20:19;13.20;69.80
9919;DHT22;4998;51.024;13.828;2024-03-22T00:22:45;13.20;69.80
9919;DHT22;4998;51.024;13.828;2024-03-22T00:25:12;13.20;69.80
9919;DHT22;4998;51.024;13.828;2024-03-22T00:27:38;13.20;69.80
9919;DHT22;4998;51.024;13.828;2024-03-22T00:30:06;13.20;70.00
9919;DHT22;4998;51.024;13.828;2024-03-22T00:32:33;13.20;70.10
9919;DHT22;4998;51.024;13.828;2024-03-22T00:35:01;13.20;70.10
9919;DHT22;4998;51.024;13.828;2024-03-22T00:37:27;13.20;70.10
9919;DHT22;4998;51.024;13.828;2024-03-22T00:39:54;13.20;70.20
9919;DHT22;4998;51.024;13.828;2024-03-22T00:42:20;13.20;70.40
9919;DHT22;4998;51.024;13.828;2024-03-22T00:44:47;13.10;70.20
9919;DHT22;4998;51.024;13.828;2024-03-22T00:47:14;13.10;70.20
9919;DHT22;4998;51.024;13.828;2024-03-22T00:49:41;13.10;70.40
9919;DHT22;4998;51.024;13.828;2024-03-22T00:52:08;13.10;70.40
9919;DHT22;4998;51.024;13.828;2024-03-22T00:54:35;13.10;70.60
9919;DHT22;4998;51.024;13.828;2024-03-22T00:57:05;13.10;70.60
9919;DHT22;4998;51.024;13.828;2024-03-22T00:59:32;13.10;70.50
9919;DHT22;4998;51.024;13.828;2024-03-22T01:01:58;13.10;70.60
9919;DHT22;4998;51.024;13.828;2024-03-22T01:04:25;13.10;70.60
9919;DHT22;4998;51.024;13.828;2024-03-22T01:06:52;13.10;70.60
9919;DHT22;4998;51.024;13.828;2024-03-22T01:09:20;13.10;70.50
9919;DHT22;4998;51.024;13.828;2024-03-22T01:11:46;13.10;70.60
9919;DHT22;4998;51.024;13.828;2024-03-22T01:14:14;13.10;70.60
9919;DHT22;4998;51.024;13.828;2024-03-22T01:16:40;13.10;70.60
9919;DHT22;4998;51.024;13.828;2024-03-22T01:19:08;13.00;70.50
9919;DHT22;4998;51.024;13.828;2024-03-22T01:21:34;13.10;70.60
9919;DHT22;4998;51.024;13.828;2024-03-22T01:24:01;13.10;71.50
9919;DHT22;4998;51.024;13.828;2024-03-22T01:26:29;13.10;70.70
9919;DHT22;4998;51.024;13.828;2024-03-22T01:28:56;13.10;70.70
9919;DHT22;4998;51.024;13.828;2024-03-22T01:31:22;13.10;70.60
9919;DHT22;4998;51.024;13.828;2024-03-22T01:33:49;13.10;70.70
9919;DHT22;4998;51.024;13.828;2024-03-22T01:36:15;13.20;70.80
9919;DHT22;4998;51.024;13.828;2024-03-22T01:38:42;13.20;70.70
9919;DHT22;4998;51.024;13.828;2024-03-22T01:41:08;13.20;70.70
9919;DHT22;4998;51.024;13.828;2024-03-22T01:43:36;13.20;70.60
9919;DHT22;4998;51.024;13.828;2024-03-22T01:46:03;13.30;70.60
9919;DHT22;4998;51.024;13.828;2024-03-22T01:48:31;13.30;70.40
9919;DHT22;4998;51.024;13.828;2024-03-22T01:50:58;13.30;70.30
9919;DHT22;4998;51.024;13.828;2024-03-22T01:53:25;13.30;70.30
9919;DHT22;4998;51.024;13.828;2024-03-22T01:55:51;13.30;70.30
9919;DHT22;4998;51.024;13.828;2024-03-22T01:58:18;13.30;70.20
9919;DHT22;4998;51.024;13.828;2024-03-22T02:00:46;13.30;70.20
9919;DHT22;4998;51.024;13.828;2024-03-22T02:03:13;13.40;70.30
9919;DHT22;4998;51.024;13.828;2024-03-22T02:05:38;13.40;70.20
9919;DHT22;4998;51.024;13.828;2024-03-22T02:08:06;13.40;70.10
9919;DHT22;4998;51.024;13.828;2024-03-22T02:10:32;13.40;70.00
9919;DHT22;4998;51.024;13.828;2024-03-22T02:12:59;13.40;70.00
9919;DHT22;4998;51.024;13.828;2024-03-22T02:15:25;13.40;70.00
9919;DHT22;4998;51.024;13.828;2024-03-22T02:17:54;13.40;70.00
9919;DHT22;4998;51.024;13.828;2024-03-22T02:20:20;13.40;69.90
9919;DHT22;4998;51.024;13.828;2024-03-22T02:22:47;13.40;69.90
9919;DHT22;4998;51.024;13.828;2024-03-22T02:25:14;13.40;70.00
9919;DHT22;4998;51.024;13.828;2024-03-22T02:27:42;13.40;70.00
9919;DHT22;4998;51.024;13.828;2024-03-22T02:30:09;13.40;70.00
9919;DHT22;4998;51.024;13.828;2024-03-22T02:32:36;13.40;70.00
9919;DHT22;4998;51.024;13.828;2024-03-22T02:35:03;13.40;70.70
9919;DHT22;4998;51.024;13.828;2024-03-22T02:37:30;13.40;69.90
9919;DHT22;4998;51.024;13.828;2024-03-22T02:39:57;13.40;69.70
9919;DHT22;4998;51.024;13.828;2024-03-22T02:42:26;13.40;69.80
9919;DHT22;4998;51.024;13.828;2024-03-22T02:44:52;13.40;69.70
9919;DHT22;4998;51.024;13.828;2024-03-22T02:47:19;13.40;69.70
9919;DHT22;4998;51.024;13.828;2024-03-22T02:49:45;13.40;69.60
9919;DHT22;4998;51.024;13.828;2024-03-22T02:52:12;13.40;69.60
9919;DHT22;4998;51.024;13.828;2024-03-22T02:54:38;13.40;69.60
9919;DHT22;4998;51.024;13.828;2024-03-22T02:57:06;13.40;69.60
9919;DHT22;4998;51.024;13.828;2024-03-22T02:59:33;13.40;69.50
9919;DHT22;4998;51.024;13.828;2024-03-22T03:02:00;13.40;69.50
9919;DHT22;4998;51.024;13.828;2024-03-22T03:04:26;13.40;69.50
9919;DHT22;4998;51.024;13.828;2024-03-22T03:06:53;13.40;69.50
9919;DHT22;4998;51.024;13.828;2024-03-22T03:09:19;13.40;69.50
9919;DHT22;4998;51.024;13.828;2024-03-22T03:11:46;13.30;69.30
9919;DHT22;4998;51.024;13.828;2024-03-22T03:14:12;13.40;69.50
9919;DHT22;4998;51.024;13.828;2024-03-22T03:16:40;13.30;69.30
9919;DHT22;4998;51.024;13.828;2024-03-22T03:19:06;13.30;69.30
9919;DHT22;4998;51.024;13.828;2024-03-22T03:21:34;13.30;69.30
9919;DHT22;4998;51.024;13.828;2024-03-22T03:23:59;13.30;69.30
9919;DHT22;4998;51.024;13.828;2024-03-22T03:26:26;13.30;69.20
9919;DHT22;4998;51.024;13.828;2024-03-22T03:28:52;13.30;69.20
9919;DHT22;4998;51.024;13.828;2024-03-22T03:31:21;13.30;69.20
9919;DHT22;4998;51.024;13.828;2024-03-22T03:33:48;13.30;69.30
9919;DHT22;4998;51.024;13.828;2024-03-22T03:36:15;13.30;69.50
9919;DHT22;4998;51.024;13.828;2024-03-22T03:38:41;13.30;69.50
9919;DHT22;4998;51.024;13.828;2024-03-22T03:41:08;13.30;69.60
9919;DHT22;4998;51.024;13.828;2024-03-22T03:43:34;13.30;69.80
9919;DHT22;4998;51.024;13.828;2024-03-22T03:46:01;13.30;69.80
9919;DHT22;4998;51.024;13.828;2024-03-22T03:48:28;13.30;69.90
9919;DHT22;4998;51.024;13.828;2024-03-22T03:50:56;13.30;70.00
9919;DHT22;4998;51.024;13.828;2024-03-22T03:53:24;13.30;70.30
9919;DHT22;4998;51.024;13.828;2024-03-22T03:55:51;13.20;70.10
9919;DHT22;4998;51.024;13.828;2024-03-22T03:58:17;13.20;70.20
9919;DHT22;4998;51.024;13.828;2024-03-22T04:00:44;13.20;70.30
9919;DHT22;4998;51.024;13.828;2024-03-22T04:03:11;13.30;70.40
9919;DHT22;4998;51.024;13.828;2024-03-22T04:05:38;13.20;70.50
9919;DHT22;4998;51.024;13.828;2024-03-22T04:08:05;13.20;70.50
9919;DHT22;4998;51.024;13.828;2024-03-22T04:10:33;13.20;70.50
9919;DHT22;4998;51.024;13.828;2024-03-22T04:12:59;13.20;70.50
9919;DHT22;4998;51.024;13.828;2024-03-22T04:15:26;13.20;70.60
9919;DHT22;4998;51.024;13.828;2024-03-22T04:17:52;13.20;70.60
9919;DHT22;4998;51.024;13.828;2024-03-22T04:20:19;13.20;70.60
9919;DHT22;4998;51.024;13.828;2024-03-22T04:22:45;13.20;70.60
9919;DHT22;4998;51.024;13.828;2024-03-22T04:25:16;13.20;70.70
9919;DHT22;4998;51.024;13.828;2024-03-22T04:27:42;13.20;70.70
9919;DHT22;4998;51.024;13.828;2024-03-22T04:30:10;13.20;70.60
9919;DHT22;4998;51.024;13.828;2024-03-22T04:32:36;13.20;70.80
9919;DHT22;4998;51.024;13.828;2024-03-22T04:35:04;13.10;70.60
9919;DHT22;4998;51.024;13.828;2024-03-22T04:37:30;13.20;70.60
9919;DHT22;4998;51.024;13.828;2024-03-22T04:39:57;13.10;70.60
9919;DHT22;4998;51.024;13.828;2024-03-22T04:42:24;13.10;70.60
9919;DHT22;4998;51.024;13.828;2024-03-22T04:44:51;13.10;70.70
9919;DHT22;4998;51.024;13.828;2024-03-22T04:47:18;13.10;70.70
9919;DHT22;4998;51.024;13.828;2024-03-22T04:49:44;13.10;70.70
9919;DHT22;4998;51.024;13.828;2024-03-22T04:52:11;13.10;70.80
9919;DHT22;4998;51.024;13.828;2024-03-22T04:54:37;13.10;70.80
9919;DHT22;4998;51.024;13.828;2024-03-22T04:57:05;13.10;70.80
9919;DHT22;4998;51.024;13.828;2024-03-22T04:59:32;13.10;70.90
9919;DHT22;4998;51.024;13.828;2024-03-22T05:01:59;13.00;70.90
9919;DHT22;4998;51.024;13.828;2024-03-22T05:04:25;13.00;70.90
9919;DHT22;4998;51.024;13.828;2024-03-22T05:06:52;13.00;71.10
9919;DHT22;4998;51.024;13.828;2024-03-22T05:09:18;13.00;71.20
9919;DHT22;4998;51.024;13.828;2024-03-22T05:11:45;13.00;71.30
9919;DHT22;4998;51.024;13.828;2024-03-22T05:14:15;13.00;72.30
9919;DHT22;4998;51.024;13.828;2024-03-22T05:16:44;13.00;71.60
9919;DHT22;4998;51.024;13.828;2024-03-22T05:19:10;12.90;71.60
9919;DHT22;4998;51.024;13.828;2024-03-22T05:21:37;13.00;71.70
9919;DHT22;4998;51.024;13.828;2024-03-22T05:24:03;12.90;71.70
9919;DHT22;4998;51.024;13.828;2024-03-22T05:26:31;12.90;71.80
9919;DHT22;4998;51.024;13.828;2024-03-22T05:29:01;12.90;71.90
9919;DHT22;4998;51.024;13.828;2024-03-22T05:31:29;12.90;72.00
9919;DHT22;4998;51.024;13.828;2024-03-22T05:33:57;13.00;72.10
9919;DHT22;4998;51.024;13.828;2024-03-22T05:36:24;13.00;72.20
9919;DHT22;4998;51.024;13.828;2024-03-22T05:38:51;12.90;72.00
9919;DHT22;4998;51.024;13.828;2024-03-22T05:41:18;13.00;72.00
9919;DHT22;4998;51.024;13.828;2024-03-22T05:43:44;13.00;72.20
9919;DHT22;4998;51.024;13.828;2024-03-22T05:46:11;13.00;72.30
9919;DHT22;4998;51.024;13.828;2024-03-22T05:48:38;13.00;72.30
9919;DHT22;4998;51.024;13.828;2024-03-22T05:51:08;13.00;72.20
9919;DHT22;4998;51.024;13.828;2024-03-22T05:53:34;13.00;72.30
9919;DHT22;4998;51.024;13.828;2024-03-22T05:56:01;13.10;72.30
9919;DHT22;4998;51.024;13.828;2024-03-22T05:58:27;13.10;72.20
9919;DHT22;4998;51.024;13.828;2024-03-22T06:00:54;13.20;72.20
9919;DHT22;4998;51.024;13.828;2024-03-22T06:03:22;13.10;72.00
9919;DHT22;4998;51.024;13.828;2024-03-22T06:05:49;13.20;72.10
9919;DHT22;4998;51.024;13.828;2024-03-22T06:08:22;13.20;72.00
9919;DHT22;4998;51.024;13.828;2024-03-22T06:10:49;13.20;72.00
9919;DHT22;4998;51.024;13.828;2024-03-22T06:13:15;13.20;71.90
9919;DHT22;4998;51.024;13.828;2024-03-22T06:15:43;13.20;71.90
9919;DHT22;4998;51.024;13.828;2024-03-22T06:18:11;13.20;71.90
9919;DHT22;4998;51.024;13.828;2024-03-22T06:20:38;13.30;71.90
9919;DHT22;4998;51.024;13.828;2024-03-22T06:23:05;13.30;71.80
9919;DHT22;4998;51.024;13.828;2024-03-22T06:25:34;13.30;71.80
9919;DHT22;4998;51.024;13.828;2024-03-22T06:28:00;13.40;71.80
9919;DHT22;4998;51.024;13.828;2024-03-22T06:30:27;13.40;71.70
9919;DHT22;4998;51.024;13.828;2024-03-22T06:32:53;13.40;71.70
9919;DHT22;4998;51.024;13.828;2024-03-22T06:35:20;13.50;71.90
9919;DHT22;4998;51.024;13.828;2024-03-22T06:37:46;13.50;71.80
9919;DHT22;4998;51.024;13.828;2024-03-22T06:40:14;13.60;71.80
9919;DHT22;4998;51.024;13.828;2024-03-22T06:42:42;13.70;71.90
9919;DHT22;4998;51.024;13.828;2024-03-22T06:45:09;13.70;71.70
9919;DHT22;4998;51.024;13.828;2024-03-22T06:47:36;13.70;71.50
9919;DHT22;4998;51.024;13.828;2024-03-22T06:50:03;13.80;71.60
9919;DHT22;4998;51.024;13.828;2024-03-22T06:52:29;13.90;71.70
9919;DHT22;4998;51.024;13.828;2024-03-22T06:54:56;13.90;71.70
9919;DHT22;4998;51.024;13.828;2024-03-22T06:57:22;14.00;71.70
9919;DHT22;4998;51.024;13.828;2024-03-22T06:59:51;14.10;71.50
9919;DHT22;4998;51.024;13.828;2024-03-22T07:02:17;14.20;71.30
9919;DHT22;4998;51.024;13.828;2024-03-22T07:04:44;14.30;71.20
9919;DHT22;4998;51.024;13.828;2024-03-22T07:07:10;14.40;70.90
9919;DHT22;4998;51.024;13.828;2024-03-22T07:09:37;14.50;70.60
9919;DHT22;4998;51.024;13.828;2024-03-22T07:12:04;14.50;70.30
9919;DHT22;4998;51.024;13.828;2024-03-22T07:14:31;14.60;70.00
9919;DHT22;4998;51.024;13.828;2024-03-22T07:16:58;14.70;69.80
9919;DHT22;4998;51.024;13.828;2024-03-22T07:19:25;14.70;69.60
9919;DHT22;4998;51.024;13.828;2024-03-22T07:21:52;14.80;69.60
9919;DHT22;4998;51.024;13.828;2024-03-22T07:24:19;14.80;69.30
9919;DHT22;4998;51.024;13.828;2024-03-22T07:26:45;14.80;69.10
9919;DHT22;4998;51.024;13.828;2024-03-22T07:29:12;14.90;68.70
9919;DHT22;4998;51.024;13.828;2024-03-22T07:31:38;14.90;68.20
9919;DHT22;4998;51.024;13.828;2024-03-22T07:34:06;14.90;68.10
9919;DHT22;4998;51.024;13.828;2024-03-22T07:36:37;14.90;67.90
9919;DHT22;4998;51.024;13.828;2024-03-22T07:39:04;14.90;67.70
9919;DHT22;4998;51.024;13.828;2024-03-22T07:41:31;14.90;67.80
9919;DHT22;4998;51.024;13.828;2024-03-22T07:43:59;14.90;67.60
9919;DHT22;4998;51.024;13.828;2024-03-22T07:46:26;15.00;67.70
9919;DHT22;4998;51.024;13.828;2024-03-22T07:48:53;15.00;67.60
9919;DHT22;4998;51.024;13.828;2024-03-22T07:51:20;15.10;67.50
9919;DHT22;4998;51.024;13.828;2024-03-22T07:53:48;15.10;67.30
9919;DHT22;4998;51.024;13.828;2024-03-22T07:56:14;15.20;67.50
9919;DHT22;4998;51.024;13.828;2024-03-22T07:58:41;15.20;67.30
9919;DHT22;4998;51.024;13.828;2024-03-22T08:01:08;15.30;67.30
9919;DHT22;4998;51.024;13.828;2024-03-22T08:03:36;15.40;67.10
9919;DHT22;4998;51.024;13.828;2024-03-22T08:06:02;15.50;67.00
9919;DHT22;4998;51.024;13.828;2024-03-22T08:08:30;15.50;66.90
9919;DHT22;4998;51.024;13.828;2024-03-22T08:10:56;15.60;66.80
9919;DHT22;4998;51.024;13.828;2024-03-22T08:13:23;15.70;66.90
9919;DHT22;4998;51.024;13.828;2024-03-22T08:15:50;15.80;66.80
9919;DHT22;4998;51.024;13.828;2024-03-22T08:18:17;15.90;66.70
9919;DHT22;4998;51.024;13.828;2024-03-22T08:20:43;16.00;66.50
9919;DHT22;4998;51.024;13.828;2024-03-22T08:23:10;16.10;66.00
9919;DHT22;4998;51.024;13.828;2024-03-22T08:25:38;16.10;65.70
9919;DHT22;4998;51.024;13.828;2024-03-22T08:28:05;16.20;65.10
9919;DHT22;4998;51.024;13.828;2024-03-22T08:30:31;16.30;65.20
9919;DHT22;4998;51.024;13.828;2024-03-22T08:32:58;16.40;65.10
9919;DHT22;4998;51.024;13.828;2024-03-22T08:35:24;16.40;64.70
9919;DHT22;4998;51.024;13.828;2024-03-22T08:37:51;16.50;64.30
9919;DHT22;4998;51.024;13.828;2024-03-22T08:40:17;16.60;65.00
9919;DHT22;4998;51.024;13.828;2024-03-22T08:42:46;16.60;63.70
9919;DHT22;4998;51.024;13.828;2024-03-22T08:45:12;16.60;63.40
9919;DHT22;4998;51.024;13.828;2024-03-22T08:47:39;16.60;63.10
9919;DHT22;4998;51.024;13.828;2024-03-22T08:50:06;16.70;63.30
9919;DHT22;4998;51.024;13.828;2024-03-22T08:52:33;16.70;63.20
9919;DHT22;4998;51.024;13.828;2024-03-22T08:55:01;16.80;63.30
9919;DHT22;4998;51.024;13.828;2024-03-22T08:57:30;16.80;63.00
9919;DHT22;4998;51.024;13.828;2024-03-22T08:59:57;16.90;63.00
9919;DHT22;4998;51.024;13.828;2024-03-22T09:02:24;17.00;62.30
9919;DHT22;4998;51.024;13.828;2024-03-22T09:04:50;17.10;62.10
9919;DHT22;4998;51.024;13.828;2024-03-22T09:07:18;17.10;61.70
9919;DHT22;4998;51.024;13.828;2024-03-22T09:09:45;17.20;61.70
9919;DHT22;4998;51.024;13.828;2024-03-22T09:12:12;17.20;61.20
9919;DHT22;4998;51.024;13.828;2024-03-22T09:14:38;17.30;60.70
9919;DHT22;4998;51.024;13.828;2024-03-22T09:17:07;17.30;60.30
9919;DHT22;4998;51.024;13.828;2024-03-22T09:19:33;17.40;60.00
9919;DHT22;4998;51.024;13.828;2024-03-22T09:22:00;17.40;60.00
9919;DHT22;4998;51.024;13.828;2024-03-22T09:24:26;17.50;59.90
9919;DHT22;4998;51.024;13.828;2024-03-22T09:26:53;17.50;59.60
9919;DHT22;4998;51.024;13.828;2024-03-22T09:29:19;17.50;59.20
9919;DHT22;4998;51.024;13.828;2024-03-22T09:31:46;17.60;59.00
9919;DHT22;4998;51.024;13.828;2024-03-22T09:34:13;17.60;59.10
9919;DHT22;4998;51.024;13.828;2024-03-22T09:36:41;17.70;58.90
9919;DHT22;4998;51.024;13.828;2024-03-22T09:39:07;17.70;58.70
9919;DHT22;4998;51.024;13.828;2024-03-22T09:41:39;17.80;58.40
9919;DHT22;4998;51.024;13.828;2024-03-22T09:44:08;17.80;57.70
9919;DHT22;4998;51.024;13.828;2024-03-22T09:46:40;17.90;57.90
9919;DHT22;4998;51.024;13.828;2024-03-22T09:49:06;17.90;58.00
9919;DHT22;4998;51.024;13.828;2024-03-22T09:51:36;18.00;57.50
9919;DHT22;4998;51.024;13.828;2024-03-22T09:54:03;18.00;56.60
9919;DHT22;4998;51.024;13.828;2024-03-22T09:56:31;18.00;56.60
9919;DHT22;4998;51.024;13.828;2024-03-22T09:58:57;18.10;56.50
9919;DHT22;4998;51.024;13.828;2024-03-22T10:01:24;18.10;56.30
9919;DHT22;4998;51.024;13.828;2024-03-22T10:03:51;18.10;56.20
9919;DHT22;4998;51.024;13.828;2024-03-22T10:06:19;18.10;56.10
9919;DHT22;4998;51.024;13.828;2024-03-22T10:08:46;18.10;56.00
9919;DHT22;4998;51.024;13.828;2024-03-22T10:11:13;18.20;56.00
9919;DHT22;4998;51.024;13.828;2024-03-22T10:13:39;18.20;55.80
9919;DHT22;4998;51.024;13.828;2024-03-22T10:16:06;18.30;56.10
9919;DHT22;4998;51.024;13.828;2024-03-22T10:18:33;18.30;55.80
9919;DHT22;4998;51.024;13.828;2024-03-22T10:21:01;18.40;55.80
9919;DHT22;4998;51.024;13.828;2024-03-22T10:23:27;18.50;55.90
9919;DHT22;4998;51.024;13.828;2024-03-22T10:25:56;18.50;55.90
9919;DHT22;4998;51.024;13.828;2024-03-22T10:28:22;18.60;55.60
9919;DHT22;4998;51.024;13.828;2024-03-22T10:30:51;18.70;55.70
9919;DHT22;4998;51.024;13.828;2024-03-22T10:33:19;18.80;55.10
9919;DHT22;4998;51.024;13.828;2024-03-22T10:35:51;18.90;54.70
9919;DHT22;4998;51.024;13.828;2024-03-22T10:38:19;18.80;54.80
9919;DHT22;4998;51.024;13.828;2024-03-22T10:40:47;18.80;55.00
9919;DHT22;4998;51.024;13.828;2024-03-22T10:43:14;18.90;54.80
9919;DHT22;4998;51.024;13.828;2024-03-22T10:45:42;18.90;54.70
9919;DHT22;4998;51.024;13.828;2024-03-22T10:48:09;18.90;54.70
9919;DHT22;4998;51.024;13.828;2024-03-22T10:50:39;18.90;54.00
9919;DHT22;4998;51.024;13.828;2024-03-22T10:53:11;18.90;54.00
9919;DHT22;4998;51.024;13.828;2024-03-22T10:55:42;18.90;54.00
9919;DHT22;4998;51.024;13.828;2024-03-22T10:58:16;19.00;54.00
9919;DHT22;4998;51.024;13.828;2024-03-22T11:00:44;19.00;53.80
9919;DHT22;4998;51.024;13.828;2024-03-22T11:03:10;19.00;54.10
9919;DHT22;4998;51.024;13.828;2024-03-22T11:05:44;19.10;54.50
9919;DHT22;4998;51.024;13.828;2024-03-22T11:08:11;19.20;54.10
9919;DHT22;4998;51.024;13.828;2024-03-22T11:10:39;19.30;54.10
9919;DHT22;4998;51.024;13.828;2024-03-22T11:13:06;19.30;53.30
9919;DHT22;4998;51.024;13.828;2024-03-22T11:15:36;19.40;53.80
9919;DHT22;4998;51.024;13.828;2024-03-22T11:18:03;19.40;53.80
9919;DHT22;4998;51.024;13.828;2024-03-22T11:20:30;19.50;53.70
9919;DHT22;4998;51.024;13.828;2024-03-22T11:22:56;19.50;53.50
9919;DHT22;4998;51.024;13.828;2024-03-22T11:25:23;19.60;53.50
9919;DHT22;4998;51.024;13.828;2024-03-22T11:27:49;19.60;53.20
9919;DHT22;4998;51.024;13.828;2024-03-22T11:30:16;19.70;53.20
9919;DHT22;4998;51.024;13.828;2024-03-22T11:32:44;19.70;52.90
9919;DHT22;4998;51.024;13.828;2024-03-22T11:35:11;19.70;52.70
9919;DHT22;4998;51.024;13.828;2024-03-22T11:37:38;19.70;52.70
9919;DHT22;4998;51.024;13.828;2024-03-22T11:40:08;19.70;52.50
9919;DHT22;4998;51.024;13.828;2024-03-22T11:42:36;19.70;52.60
9919;DHT22;4998;51.024;13.828;2024-03-22T11:45:05;19.80;52.80
9919;DHT22;4998;51.024;13.828;2024-03-22T11:47:32;19.80;52.40
9919;DHT22;4998;51.024;13.828;2024-03-22T11:50:02;19.80;52.10
9919;DHT22;4998;51.024;13.828;2024-03-22T11:52:28;19.80;52.40
9919;DHT22;4998;51.024;13.828;2024-03-22T11:54:55;19.80;52.50
9919;DHT22;4998;51.024;13.828;2024-03-22T11:57:21;19.80;52.40
9919;DHT22;4998;51.024;13.828;2024-03-22T11:59:49;19.90;52.10
9919;DHT22;4998;51.024;13.828;2024-03-22T12:02:15;19.90;52.00
9919;DHT22;4998;51.024;13.828;2024-03-22T12:04:42;19.90;51.80
9919;DHT22;4998;51.024;13.828;2024-03-22T12:07:11;19.90;52.10
9919;DHT22;4998;51.024;13.828;2024-03-22T12:09:40;19.90;52.00
9919;DHT22;4998;51.024;13.828;2024-03-22T12:12:08;19.90;52.00
9919;DHT22;4998;51.024;13.828;2024-03-22T12:14:35;20.00;51.80
9919;DHT22;4998;51.024;13.828;2024-03-22T12:17:02;20.00;51.80
9919;DHT22;4998;51.024;13.828;2024-03-22T12:19:29;20.10;51.20
9919;DHT22;4998;51.024;13.828;2024-03-22T12:21:55;20.10;51.50
9919;DHT22;4998;51.024;13.828;2024-03-22T12:24:24;20.10;51.80
9919;DHT22;4998;51.024;13.828;2024-03-22T12:26:51;20.20;51.50
9919;DHT22;4998;51.024;13.828;2024-03-22T12:29:19;20.20;51.60
9919;DHT22;4998;51.024;13.828;2024-03-22T12:31:45;20.20;51.50
9919;DHT22;4998;51.024;13.828;2024-03-22T12:34:12;20.30;51.50
9919;DHT22;4998;51.024;13.828;2024-03-22T12:36:38;20.30;51.50
9919;DHT22;4998;51.024;13.828;2024-03-22T12:39:06;20.40;51.30
9919;DHT22;4998;51.024;13.828;2024-03-22T12:41:33;20.50;51.30
9919;DHT22;4998;51.024;13.828;2024-03-22T12:44:01;20.50;51.00
9919;DHT22;4998;51.024;13.828;2024-03-22T12:46:27;20.50;50.60
9919;DHT22;4998;51.024;13.828;2024-03-22T12:48:54;20.50;51.20
9919;DHT22;4998;51.024;13.828;2024-03-22T12:51:20;20.50;50.50
9919;DHT22;4998;51.024;13.828;2024-03-22T12:53:47;20.50;50.30
9919;DHT22;4998;51.024;13.828;2024-03-22T12:56:13;20.40;50.40
9919;DHT22;4998;51.024;13.828;2024-03-22T12:58:42;20.40;50.30
9919;DHT22;4998;51.024;13.828;2024-03-22T13:01:08;20.40;50.30
9919;DHT22;4998;51.024;13.828;2024-03-22T13:03:36;20.40;50.50
9919;DHT22;4998;51.024;13.828;2024-03-22T13:06:03;20.40;50.50
9919;DHT22;4998;51.024;13.828;2024-03-22T13:08:31;20.40;50.90
9919;DHT22;4998;51.024;13.828;2024-03-22T13:10:57;20.40;50.80
9919;DHT22;4998;51.024;13.828;2024-03-22T13:13:24;20.50;50.90
9919;DHT22;4998;51.024;13.828;2024-03-22T13:15:51;20.50;50.60
9919;DHT22;4998;51.024;13.828;2024-03-22T13:18:18;20.60;50.40
9919;DHT22;4998;51.024;13.828;2024-03-22T13:20:47;20.60;50.20
9919;DHT22;4998;51.024;13.828;2024-03-22T13:23:14;20.60;50.00
9919;DHT22;4998;51.024;13.828;2024-03-22T13:25:40;20.60;49.80
9919;DHT22;4998;51.024;13.828;2024-03-22T13:28:07;20.60;49.90
9919;DHT22;4998;51.024;13.828;2024-03-22T13:30:33;20.60;49.50
9919;DHT22;4998;51.024;13.828;2024-03-22T13:33:04;20.60;49.60
9919;DHT22;4998;51.024;13.828;2024-03-22T13:35:31;20.60;49.20
9919;DHT22;4998;51.024;13.828;2024-03-22T13:37:59;20.50;49.40
9919;DHT22;4998;51.024;13.828;2024-03-22T13:40:26;20.50;49.10
9919;DHT22;4998;51.024;13.828;2024-03-22T13:42:53;20.50;49.20
9919;DHT22;4998;51.024;13.828;2024-03-22T13:45:19;20.50;49.30
9919;DHT22;4998;51.024;13.828;2024-03-22T13:47:47;20.50;49.60
9919;DHT22;4998;51.024;13.828;2024-03-22T13:50:14;20.50;49.50
9919;DHT22;4998;51.024;13.828;2024-03-22T13:52:42;20.50;49.40
9919;DHT22;4998;51.024;13.828;2024-03-22T13:55:08;20.60;49.60
9919;DHT22;4998;51.024;13.828;2024-03-22T13:57:35;20.60;49.70
9919;DHT22;4998;51.024;13.828;2024-03-22T14:00:01;20.60;49.60
9919;DHT22;4998;51.024;13.828;2024-03-22T14:02:32;20.60;49.60
9919;DHT22;4998;51.024;13.828;2024-03-22T14:04:58;20.60;49.40
9919;DHT22;4998;51.024;13.828;2024-03-22T14:07:27;20.70;49.50
9919;DHT22;4998;51.024;13.828;2024-03-22T14:09:53;20.70;49.30
9919;DHT22;4998;51.024;13.828;2024-03-22T14:12:20;20.70;49.10
9919;DHT22;4998;51.024;13.828;2024-03-22T14:14:46;20.60;49.00
9919;DHT22;4998;51.024;13.828;2024-03-22T14:17:14;20.60;48.90
9919;DHT22;4998;51.024;13.828;2024-03-22T14:19:40;20.60;48.90
9919;DHT22;4998;51.024;13.828;2024-03-22T14:22:07;20.60;49.00
9919;DHT22;4998;51.024;13.828;2024-03-22T14:24:35;20.60;48.90
9919;DHT22;4998;51.024;13.828;2024-03-22T14:27:02;20.60;48.80
9919;DHT22;4998;51.024;13.828;2024-03-22T14:29:28;20.50;48.80
9919;DHT22;4998;51.024;13.828;2024-03-22T14:31:55;20.50;49.00
9919;DHT22;4998;51.024;13.828;2024-03-22T14:34:21;20.50;49.00
9919;DHT22;4998;51.024;13.828;2024-03-22T14:36:48;20.50;48.90
9919;DHT22;4998;51.024;13.828;2024-03-22T14:39:14;20.60;49.00
9919;DHT22;4998;51.024;13.828;2024-03-22T14:41:43;20.60;48.90
9919;DHT22;4998;51.024;13.828;2024-03-22T14:44:09;20.60;48.80
9919;DHT22;4998;51.024;13.828;2024-03-22T14:46:36;20.60;49.00
9919;DHT22;4998;51.024;13.828;2024-03-22T14:49:02;20.60;49.00
9919;DHT22;4998;51.024;13.828;2024-03-22T14:51:29;20.60;49.10
9919;DHT22;4998;51.024;13.828;2024-03-22T14:53:55;20.60;49.10
9919;DHT22;4998;51.024;13.828;2024-03-22T14:56:22;20.60;49.00
9919;DHT22;4998;51.024;13.828;2024-03-22T14:58:50;20.60;48.90
9919;DHT22;4998;51.024;13.828;2024-03-22T15:01:17;20.70;48.80
9919;DHT22;4998;51.024;13.828;2024-03-22T15:03:44;20.70;48.90
9919;DHT22;4998;51.024;13.828;2024-03-22T15:06:11;20.70;48.90
9919;DHT22;4998;51.024;13.828;2024-03-22T15:08:37;20.70;48.80
9919;DHT22;4998;51.024;13.828;2024-03-22T15:11:04;20.70;48.50
9919;DHT22;4998;51.024;13.828;2024-03-22T15:13:30;20.60;48.40
9919;DHT22;4998;51.024;13.828;2024-03-22T15:15:59;20.60;48.40
9919;DHT22;4998;51.024;13.828;2024-03-22T15:18:25;20.60;48.40
9919;DHT22;4998;51.024;13.828;2024-03-22T15:20:53;20.60;48.60
9919;DHT22;4998;51.024;13.828;2024-03-22T15:23:19;20.60;48.60
9919;DHT22;4998;51.024;13.828;2024-03-22T15:25:47;20.50;48.40
9919;DHT22;4998;51.024;13.828;2024-03-22T15:28:13;20.50;48.20
9919;DHT22;4998;51.024;13.828;2024-03-22T15:30:40;20.50;48.20
9919;DHT22;4998;51.024;13.828;2024-03-22T15:33:09;20.40;48.20
9919;DHT22;4998;51.024;13.828;2024-03-22T15:35:36;20.30;48.20
9919;DHT22;4998;51.024;13.828;2024-03-22T15:38:03;20.30;48.20
9919;DHT22;4998;51.024;13.828;2024-03-22T15:40:30;20.20;48.20
9919;DHT22;4998;51.024;13.828;2024-03-22T15:42:57;20.20;48.30